sensor_id;sensor_type;location;lat;lon;timestamp;P1;durP1;ratioP1;P2;durP2;ratioP2
8675;SDS011;4375;52.486;13.424;2023-04-15T00:00:14;46.33;;;22.70;;
8675;SDS011;4375;52.486;13.424;2023-04-15T00:02:41;49.20;;;21.53;;
8675;SDS011;4375;52.486;13.424;2023-04-15T00:05:06;45.37;;;20.93;;
8675;SDS011;4375;52.486;13.424;2023-04-15T00:07:32;45.33;;;23.37;;
8675;SDS011;4375;52.486;13.424;2023-04-15T00:09:58;45.47;;;23.23;;
8675;SDS011;4375;52.486;13.424;2023-04-15T00:12:27;43.97;;;21.23;;
8675;SDS011;4375;52.486;13.424;2023-04-15T00:14:53;50.90;;;23.30;;
8675;SDS011;4375;52.486;13.424;2023-04-15T00:17:19;49.63;;;22.43;;
8675;SDS011;4375;52.486;13.424;2023-04-15T00:19:45;45.70;;;22.33;;
8675;SDS011;4375;52.486;13.424;2023-04-15T00:22:11;43.20;;;20.70;;
8675;SDS011;4375;52.486;13.424;2023-04-15T00:24:37;48.43;;;21.80;;
8675;SDS011;4375;52.486;13.424;2023-04-15T00:27:03;44.73;;;21.07;;
8675;SDS011;4375;52.486;13.424;2023-04-15T00:29:29;52.60;;;24.67;;
8675;SDS011;4375;52.486;13.424;2023-04-15T00:31:55;50.93;;;24.37;;
8675;SDS011;4375;52.486;13.424;2023-04-15T00:34:21;55.00;;;24.77;;
8675;SDS011;4375;52.486;13.424;2023-04-15T00:36:48;52.90;;;24.87;;
8675;SDS011;4375;52.486;13.424;2023-04-15T00:39:14;50.67;;;25.10;;
8675;SDS011;4375;52.486;13.424;2023-04-15T00:41:40;46.90;;;24.27;;
8675;SDS011;4375;52.486;13.424;2023-04-15T00:44:06;48.20;;;24.07;;
8675;SDS011;4375;52.486;13.424;2023-04-15T00:46:36;52.90;;;24.20;;
8675;SDS011;4375;52.486;13.424;2023-04-15T00:49:04;47.33;;;23.77;;
8675;SDS011;4375;52.486;13.424;2023-04-15T00:51:30;56.67;;;26.07;;
8675;SDS011;4375;52.486;13.424;2023-04-15T00:53:58;50.07;;;23.77;;
8675;SDS011;4375;52.486;13.424;2023-04-15T00:56:24;57.83;;;25.93;;
8675;SDS011;4375;52.486;13.424;2023-04-15T00:58:51;55.80;;;25.93;;
8675;SDS011;4375;52.486;13.424;2023-04-15T01:01:20;55.77;;;25.30;;
8675;SDS011;4375;52.486;13.424;2023-04-15T01:03:49;51.57;;;24.20;;
8675;SDS011;4375;52.486;13.424;2023-04-15T01:06:16;57.97;;;25.97;;
8675;SDS011;4375;52.486;13.424;2023-04-15T01:08:42;58.90;;;27.90;;
8675;SDS011;4375;52.486;13.424;2023-04-15T01:11:09;56.80;;;26.77;;
8675;SDS011;4375;52.486;13.424;2023-04-15T01:13:37;56.37;;;27.20;;
8675;SDS011;4375;52.486;13.424;2023-04-15T01:16:03;59.97;;;24.97;;
8675;SDS011;4375;52.486;13.424;2023-04-15T01:18:29;55.23;;;25.90;;
8675;SDS011;4375;52.486;13.424;2023-04-15T01:20:55;54.20;;;26.43;;
8675;SDS011;4375;52.486;13.424;2023-04-15T01:23:21;60.00;;;26.53;;
8675;SDS011;4375;52.486;13.424;2023-04-15T01:25:48;53.80;;;25.87;;
8675;SDS011;4375;52.486;13.424;2023-04-15T01:28:14;54.43;;;26.20;;
8675;SDS011;4375;52.486;13.424;2023-04-15T01:30:40;63.20;;;26.60;;
8675;SDS011;4375;52.486;13.424;2023-04-15T01:33:06;51.50;;;25.53;;
8675;SDS011;4375;52.486;13.424;2023-04-15T01:35:32;56.53;;;26.20;;
8675;SDS011;4375;52.486;13.424;2023-04-15T01:38:05;55.30;;;27.87;;
8675;SDS011;4375;52.486;13.424;2023-04-15T01:40:32;57.13;;;25.73;;
8675;SDS011;4375;52.486;13.424;2023-04-15T01:42:59;56.47;;;27.10;;
8675;SDS011;4375;52.486;13.424;2023-04-15T01:45:25;57.27;;;27.13;;
8675;SDS011;4375;52.486;13.424;2023-04-15T01:47:51;59.00;;;27.57;;
8675;SDS011;4375;52.486;13.424;2023-04-15T01:50:17;67.43;;;28.80;;
8675;SDS011;4375;52.486;13.424;2023-04-15T01:52:44;61.90;;;26.20;;
8675;SDS011;4375;52.486;13.424;2023-04-15T01:55:10;59.33;;;26.57;;
8675;SDS011;4375;52.486;13.424;2023-04-15T01:57:37;59.97;;;27.60;;
8675;SDS011;4375;52.486;13.424;2023-04-15T02:00:03;57.80;;;27.50;;
8675;SDS011;4375;52.486;13.424;2023-04-15T02:02:29;62.70;;;28.20;;
8675;SDS011;4375;52.486;13.424;2023-04-15T02:04:54;63.87;;;27.73;;
8675;SDS011;4375;52.486;13.424;2023-04-15T02:07:20;55.73;;;25.87;;
8675;SDS011;4375;52.486;13.424;2023-04-15T02:09:46;59.13;;;26.23;;
8675;SDS011;4375;52.486;13.424;2023-04-15T02:12:12;63.40;;;27.63;;
8675;SDS011;4375;52.486;13.424;2023-04-15T02:14:38;63.20;;;27.83;;
8675;SDS011;4375;52.486;13.424;2023-04-15T02:17:03;59.77;;;27.57;;
8675;SDS011;4375;52.486;13.424;2023-04-15T02:19:32;57.90;;;26.13;;
8675;SDS011;4375;52.486;13.424;2023-04-15T02:21:59;57.80;;;27.17;;
8675;SDS011;4375;52.486;13.424;2023-04-15T02:24:26;67.90;;;28.07;;
8675;SDS011;4375;52.486;13.424;2023-04-15T02:26:53;57.57;;;26.20;;
8675;SDS011;4375;52.486;13.424;2023-04-15T02:29:19;59.50;;;27.40;;
8675;SDS011;4375;52.486;13.424;2023-04-15T02:31:44;56.30;;;25.93;;
8675;SDS011;4375;52.486;13.424;2023-04-15T02:34:10;60.10;;;27.30;;
8675;SDS011;4375;52.486;13.424;2023-04-15T02:36:40;55.87;;;25.17;;
8675;SDS011;4375;52.486;13.424;2023-04-15T02:39:06;54.30;;;26.10;;
8675;SDS011;4375;52.486;13.424;2023-04-15T02:41:31;62.47;;;26.80;;
8675;SDS011;4375;52.486;13.424;2023-04-15T02:43:57;53.60;;;26.07;;
8675;SDS011;4375;52.486;13.424;2023-04-15T02:46:23;60.50;;;24.90;;
8675;SDS011;4375;52.486;13.424;2023-04-15T02:48:49;62.97;;;24.83;;
8675;SDS011;4375;52.486;13.424;2023-04-15T02:51:15;57.77;;;26.50;;
8675;SDS011;4375;52.486;13.424;2023-04-15T02:53:46;60.13;;;26.07;;
8675;SDS011;4375;52.486;13.424;2023-04-15T02:56:13;63.37;;;28.13;;
8675;SDS011;4375;52.486;13.424;2023-04-15T02:58:40;59.33;;;28.40;;
8675;SDS011;4375;52.486;13.424;2023-04-15T03:01:05;55.27;;;27.40;;
8675;SDS011;4375;52.486;13.424;2023-04-15T03:03:33;56.30;;;25.00;;
8675;SDS011;4375;52.486;13.424;2023-04-15T03:05:59;65.00;;;26.37;;
8675;SDS011;4375;52.486;13.424;2023-04-15T03:08:25;59.70;;;27.67;;
8675;SDS011;4375;52.486;13.424;2023-04-15T03:10:50;57.30;;;25.90;;
8675;SDS011;4375;52.486;13.424;2023-04-15T03:13:17;57.10;;;27.60;;
8675;SDS011;4375;52.486;13.424;2023-04-15T03:15:45;54.83;;;24.40;;
8675;SDS011;4375;52.486;13.424;2023-04-15T03:18:11;55.10;;;25.40;;
8675;SDS011;4375;52.486;13.424;2023-04-15T03:20:37;60.43;;;26.90;;
8675;SDS011;4375;52.486;13.424;2023-04-15T03:23:02;56.17;;;26.20;;
8675;SDS011;4375;52.486;13.424;2023-04-15T03:25:28;55.30;;;25.63;;
8675;SDS011;4375;52.486;13.424;2023-04-15T03:27:54;53.93;;;24.37;;
8675;SDS011;4375;52.486;13.424;2023-04-15T03:30:19;52.00;;;25.53;;
8675;SDS011;4375;52.486;13.424;2023-04-15T03:32:45;53.10;;;25.57;;
8675;SDS011;4375;52.486;13.424;2023-04-15T03:35:11;52.10;;;24.87;;
8675;SDS011;4375;52.486;13.424;2023-04-15T03:37:37;56.53;;;25.70;;
8675;SDS011;4375;52.486;13.424;2023-04-15T03:40:02;58.03;;;23.30;;
8675;SDS011;4375;52.486;13.424;2023-04-15T03:42:28;56.57;;;25.30;;
8675;SDS011;4375;52.486;13.424;2023-04-15T03:44:54;59.53;;;25.70;;
8675;SDS011;4375;52.486;13.424;2023-04-15T03:47:19;51.67;;;23.13;;
8675;SDS011;4375;52.486;13.424;2023-04-15T03:49:45;52.93;;;25.40;;
8675;SDS011;4375;52.486;13.424;2023-04-15T03:52:11;52.80;;;24.20;;
8675;SDS011;4375;52.486;13.424;2023-04-15T03:54:36;47.80;;;22.50;;
8675;SDS011;4375;52.486;13.424;2023-04-15T03:57:02;52.43;;;24.40;;
8675;SDS011;4375;52.486;13.424;2023-04-15T03:59:27;50.33;;;25.13;;
8675;SDS011;4375;52.486;13.424;2023-04-15T04:01:53;56.83;;;26.43;;
8675;SDS011;4375;52.486;13.424;2023-04-15T04:04:19;53.30;;;23.30;;
8675;SDS011;4375;52.486;13.424;2023-04-15T04:06:45;55.07;;;23.73;;
8675;SDS011;4375;52.486;13.424;2023-04-15T04:09:10;49.97;;;23.87;;
8675;SDS011;4375;52.486;13.424;2023-04-15T04:11:36;54.53;;;23.53;;
8675;SDS011;4375;52.486;13.424;2023-04-15T04:14:02;52.07;;;23.70;;
8675;SDS011;4375;52.486;13.424;2023-04-15T04:16:27;53.67;;;21.90;;
8675;SDS011;4375;52.486;13.424;2023-04-15T04:18:53;54.97;;;24.80;;
8675;SDS011;4375;52.486;13.424;2023-04-15T04:21:18;50.43;;;23.43;;
8675;SDS011;4375;52.486;13.424;2023-04-15T04:23:45;45.47;;;21.97;;
8675;SDS011;4375;52.486;13.424;2023-04-15T04:26:11;48.50;;;22.77;;
8675;SDS011;4375;52.486;13.424;2023-04-15T04:28:36;50.03;;;22.50;;
8675;SDS011;4375;52.486;13.424;2023-04-15T04:31:04;50.80;;;23.73;;
8675;SDS011;4375;52.486;13.424;2023-04-15T04:33:31;53.63;;;23.80;;
8675;SDS011;4375;52.486;13.424;2023-04-15T04:35:57;45.97;;;21.30;;
8675;SDS011;4375;52.486;13.424;2023-04-15T04:38:23;47.30;;;22.03;;
8675;SDS011;4375;52.486;13.424;2023-04-15T04:40:51;47.50;;;23.10;;
8675;SDS011;4375;52.486;13.424;2023-04-15T04:43:16;42.93;;;20.53;;
8675;SDS011;4375;52.486;13.424;2023-04-15T04:45:42;44.27;;;19.97;;
8675;SDS011;4375;52.486;13.424;2023-04-15T04:48:08;41.60;;;20.87;;
8675;SDS011;4375;52.486;13.424;2023-04-15T04:50:34;43.40;;;21.13;;
8675;SDS011;4375;52.486;13.424;2023-04-15T04:53:00;48.00;;;21.60;;
8675;SDS011;4375;52.486;13.424;2023-04-15T04:55:26;46.00;;;20.67;;
8675;SDS011;4375;52.486;13.424;2023-04-15T04:57:57;46.10;;;21.80;;
8675;SDS011;4375;52.486;13.424;2023-04-15T05:00:23;46.30;;;19.40;;
8675;SDS011;4375;52.486;13.424;2023-04-15T05:02:49;49.37;;;22.40;;
8675;SDS011;4375;52.486;13.424;2023-04-15T05:05:15;45.70;;;20.80;;
8675;SDS011;4375;52.486;13.424;2023-04-15T05:07:41;43.33;;;19.30;;
8675;SDS011;4375;52.486;13.424;2023-04-15T05:10:13;46.23;;;20.87;;
8675;SDS011;4375;52.486;13.424;2023-04-15T05:12:39;48.20;;;21.03;;
8675;SDS011;4375;52.486;13.424;2023-04-15T05:15:38;39.70;;;19.40;;
8675;SDS011;4375;52.486;13.424;2023-04-15T05:18:02;46.93;;;20.20;;
8675;SDS011;4375;52.486;13.424;2023-04-15T05:20:34;40.33;;;19.00;;
8675;SDS011;4375;52.486;13.424;2023-04-15T05:25:52;38.10;;;19.20;;
8675;SDS011;4375;52.486;13.424;2023-04-15T05:28:18;36.57;;;18.53;;
8675;SDS011;4375;52.486;13.424;2023-04-15T05:30:43;40.50;;;19.17;;
8675;SDS011;4375;52.486;13.424;2023-04-15T05:33:09;37.43;;;18.10;;
8675;SDS011;4375;52.486;13.424;2023-04-15T05:35:35;36.67;;;18.10;;
8675;SDS011;4375;52.486;13.424;2023-04-15T05:38:01;33.97;;;15.57;;
8675;SDS011;4375;52.486;13.424;2023-04-15T05:40:27;35.37;;;16.73;;
8675;SDS011;4375;52.486;13.424;2023-04-15T05:42:54;33.63;;;15.63;;
8675;SDS011;4375;52.486;13.424;2023-04-15T05:45:20;35.80;;;18.10;;
8675;SDS011;4375;52.486;13.424;2023-04-15T05:47:45;31.40;;;15.30;;
8675;SDS011;4375;52.486;13.424;2023-04-15T05:50:11;37.07;;;16.00;;
8675;SDS011;4375;52.486;13.424;2023-04-15T05:52:37;35.47;;;14.90;;
8675;SDS011;4375;52.486;13.424;2023-04-15T05:55:03;32.17;;;16.37;;
8675;SDS011;4375;52.486;13.424;2023-04-15T05:57:28;35.33;;;16.00;;
8675;SDS011;4375;52.486;13.424;2023-04-15T05:59:54;32.50;;;15.13;;
8675;SDS011;4375;52.486;13.424;2023-04-15T06:02:21;36.20;;;15.27;;
8675;SDS011;4375;52.486;13.424;2023-04-15T06:04:46;36.10;;;17.87;;
8675;SDS011;4375;52.486;13.424;2023-04-15T06:07:12;33.00;;;16.27;;
8675;SDS011;4375;52.486;13.424;2023-04-15T06:09:38;35.97;;;16.30;;
8675;SDS011;4375;52.486;13.424;2023-04-15T06:12:04;33.70;;;16.40;;
8675;SDS011;4375;52.486;13.424;2023-04-15T06:14:30;32.80;;;15.60;;
8675;SDS011;4375;52.486;13.424;2023-04-15T06:16:56;30.50;;;15.00;;
8675;SDS011;4375;52.486;13.424;2023-04-15T06:19:22;33.63;;;15.87;;
8675;SDS011;4375;52.486;13.424;2023-04-15T06:21:47;33.00;;;16.10;;
8675;SDS011;4375;52.486;13.424;2023-04-15T06:24:23;32.40;;;15.90;;
8675;SDS011;4375;52.486;13.424;2023-04-15T06:26:54;33.80;;;16.00;;
8675;SDS011;4375;52.486;13.424;2023-04-15T06:32:42;33.23;;;15.80;;
8675;SDS011;4375;52.486;13.424;2023-04-15T06:35:08;30.80;;;14.53;;
8675;SDS011;4375;52.486;13.424;2023-04-15T06:37:33;32.33;;;15.20;;
8675;SDS011;4375;52.486;13.424;2023-04-15T06:39:59;40.20;;;16.00;;
8675;SDS011;4375;52.486;13.424;2023-04-15T06:42:25;32.50;;;15.07;;
8675;SDS011;4375;52.486;13.424;2023-04-15T06:44:50;32.27;;;15.07;;
8675;SDS011;4375;52.486;13.424;2023-04-15T06:47:16;34.00;;;14.57;;
8675;SDS011;4375;52.486;13.424;2023-04-15T06:49:42;31.93;;;15.73;;
8675;SDS011;4375;52.486;13.424;2023-04-15T06:52:09;29.80;;;13.80;;
8675;SDS011;4375;52.486;13.424;2023-04-15T06:54:34;30.07;;;14.13;;
8675;SDS011;4375;52.486;13.424;2023-04-15T06:57:00;30.80;;;14.63;;
8675;SDS011;4375;52.486;13.424;2023-04-15T06:59:26;33.30;;;14.20;;
8675;SDS011;4375;52.486;13.424;2023-04-15T07:01:51;27.07;;;13.10;;
8675;SDS011;4375;52.486;13.424;2023-04-15T07:04:17;28.13;;;13.13;;
8675;SDS011;4375;52.486;13.424;2023-04-15T07:06:43;29.50;;;14.10;;
8675;SDS011;4375;52.486;13.424;2023-04-15T07:09:09;35.07;;;13.87;;
8675;SDS011;4375;52.486;13.424;2023-04-15T07:11:36;26.73;;;11.83;;
8675;SDS011;4375;52.486;13.424;2023-04-15T07:14:01;26.70;;;12.50;;
8675;SDS011;4375;52.486;13.424;2023-04-15T07:16:27;27.30;;;12.43;;
8675;SDS011;4375;52.486;13.424;2023-04-15T07:18:53;29.40;;;12.40;;
8675;SDS011;4375;52.486;13.424;2023-04-15T07:21:19;28.60;;;12.60;;
8675;SDS011;4375;52.486;13.424;2023-04-15T07:23:45;26.63;;;12.50;;
8675;SDS011;4375;52.486;13.424;2023-04-15T07:26:11;25.90;;;11.20;;
8675;SDS011;4375;52.486;13.424;2023-04-15T07:28:37;30.63;;;12.53;;
8675;SDS011;4375;52.486;13.424;2023-04-15T07:31:02;27.17;;;11.93;;
8675;SDS011;4375;52.486;13.424;2023-04-15T07:33:28;30.63;;;12.20;;
8675;SDS011;4375;52.486;13.424;2023-04-15T07:35:53;28.03;;;12.20;;
8675;SDS011;4375;52.486;13.424;2023-04-15T07:38:19;28.70;;;13.67;;
8675;SDS011;4375;52.486;13.424;2023-04-15T07:40:45;25.77;;;12.07;;
8675;SDS011;4375;52.486;13.424;2023-04-15T07:43:12;28.50;;;12.40;;
8675;SDS011;4375;52.486;13.424;2023-04-15T07:45:38;26.87;;;12.97;;
8675;SDS011;4375;52.486;13.424;2023-04-15T07:48:04;30.03;;;14.23;;
8675;SDS011;4375;52.486;13.424;2023-04-15T07:50:30;29.63;;;13.83;;
8675;SDS011;4375;52.486;13.424;2023-04-15T07:52:56;31.73;;;14.80;;
8675;SDS011;4375;52.486;13.424;2023-04-15T07:55:22;30.33;;;14.93;;
8675;SDS011;4375;52.486;13.424;2023-04-15T07:57:48;27.23;;;13.83;;
8675;SDS011;4375;52.486;13.424;2023-04-15T08:00:14;30.70;;;14.13;;
8675;SDS011;4375;52.486;13.424;2023-04-15T08:02:41;29.80;;;14.37;;
8675;SDS011;4375;52.486;13.424;2023-04-15T08:05:07;29.63;;;14.63;;
8675;SDS011;4375;52.486;13.424;2023-04-15T08:07:35;29.10;;;12.63;;
8675;SDS011;4375;52.486;13.424;2023-04-15T08:10:02;30.53;;;13.77;;
8675;SDS011;4375;52.486;13.424;2023-04-15T08:12:28;29.90;;;14.23;;
8675;SDS011;4375;52.486;13.424;2023-04-15T08:14:53;28.83;;;14.80;;
8675;SDS011;4375;52.486;13.424;2023-04-15T08:17:20;34.97;;;14.53;;
8675;SDS011;4375;52.486;13.424;2023-04-15T08:19:46;28.03;;;13.77;;
8675;SDS011;4375;52.486;13.424;2023-04-15T08:22:12;30.27;;;14.13;;
8675;SDS011;4375;52.486;13.424;2023-04-15T08:24:39;27.63;;;13.93;;
8675;SDS011;4375;52.486;13.424;2023-04-15T08:27:05;31.63;;;13.47;;
8675;SDS011;4375;52.486;13.424;2023-04-15T08:29:32;26.20;;;13.70;;
8675;SDS011;4375;52.486;13.424;2023-04-15T08:31:58;30.90;;;14.73;;
8675;SDS011;4375;52.486;13.424;2023-04-15T08:34:25;30.50;;;14.13;;
8675;SDS011;4375;52.486;13.424;2023-04-15T08:36:51;30.37;;;15.27;;
8675;SDS011;4375;52.486;13.424;2023-04-15T08:39:17;30.70;;;15.10;;
8675;SDS011;4375;52.486;13.424;2023-04-15T08:41:46;31.73;;;14.63;;
8675;SDS011;4375;52.486;13.424;2023-04-15T08:44:34;28.33;;;14.10;;
8675;SDS011;4375;52.486;13.424;2023-04-15T08:47:03;32.43;;;14.77;;
8675;SDS011;4375;52.486;13.424;2023-04-15T08:49:32;30.17;;;15.63;;
8675;SDS011;4375;52.486;13.424;2023-04-15T08:52:03;29.17;;;14.50;;
8675;SDS011;4375;52.486;13.424;2023-04-15T08:54:31;27.47;;;13.27;;
8675;SDS011;4375;52.486;13.424;2023-04-15T08:56:58;29.10;;;14.43;;
8675;SDS011;4375;52.486;13.424;2023-04-15T08:59:24;29.53;;;14.27;;
8675;SDS011;4375;52.486;13.424;2023-04-15T09:01:49;26.83;;;12.47;;
8675;SDS011;4375;52.486;13.424;2023-04-15T09:04:16;30.97;;;14.47;;
8675;SDS011;4375;52.486;13.424;2023-04-15T09:06:42;32.50;;;15.80;;
8675;SDS011;4375;52.486;13.424;2023-04-15T09:09:07;33.57;;;15.90;;
8675;SDS011;4375;52.486;13.424;2023-04-15T09:11:33;29.37;;;15.10;;
8675;SDS011;4375;52.486;13.424;2023-04-15T09:14:00;29.27;;;14.60;;
8675;SDS011;4375;52.486;13.424;2023-04-15T09:16:26;32.20;;;15.57;;
8675;SDS011;4375;52.486;13.424;2023-04-15T09:18:52;33.10;;;16.17;;
8675;SDS011;4375;52.486;13.424;2023-04-15T09:21:18;33.17;;;15.10;;
8675;SDS011;4375;52.486;13.424;2023-04-15T09:24:00;28.67;;;14.27;;
8675;SDS011;4375;52.486;13.424;2023-04-15T09:26:44;30.20;;;15.27;;
8675;SDS011;4375;52.486;13.424;2023-04-15T09:29:10;28.20;;;15.07;;
8675;SDS011;4375;52.486;13.424;2023-04-15T09:31:39;30.03;;;15.40;;
8675;SDS011;4375;52.486;13.424;2023-04-15T09:34:06;33.13;;;14.30;;
8675;SDS011;4375;52.486;13.424;2023-04-15T09:36:37;29.93;;;14.40;;
8675;SDS011;4375;52.486;13.424;2023-04-15T09:39:12;31.60;;;15.93;;
8675;SDS011;4375;52.486;13.424;2023-04-15T09:41:38;30.00;;;15.40;;
8675;SDS011;4375;52.486;13.424;2023-04-15T09:44:04;30.60;;;16.10;;
8675;SDS011;4375;52.486;13.424;2023-04-15T09:46:43;31.70;;;15.20;;
8675;SDS011;4375;52.486;13.424;2023-04-15T09:49:10;32.87;;;16.40;;
8675;SDS011;4375;52.486;13.424;2023-04-15T09:51:45;30.67;;;15.30;;
8675;SDS011;4375;52.486;13.424;2023-04-15T09:54:11;28.60;;;14.00;;
8675;SDS011;4375;52.486;13.424;2023-04-15T09:56:37;27.20;;;13.50;;
8675;SDS011;4375;52.486;13.424;2023-04-15T09:59:07;29.53;;;13.77;;
8675;SDS011;4375;52.486;13.424;2023-04-15T10:01:33;28.97;;;15.10;;
8675;SDS011;4375;52.486;13.424;2023-04-15T10:04:01;28.70;;;13.97;;
8675;SDS011;4375;52.486;13.424;2023-04-15T10:06:28;29.50;;;14.33;;
8675;SDS011;4375;52.486;13.424;2023-04-15T10:08:54;28.70;;;14.13;;
8675;SDS011;4375;52.486;13.424;2023-04-15T10:11:26;31.87;;;15.70;;
8675;SDS011;4375;52.486;13.424;2023-04-15T10:13:53;29.43;;;14.40;;
8675;SDS011;4375;52.486;13.424;2023-04-15T10:16:20;30.80;;;14.83;;
8675;SDS011;4375;52.486;13.424;2023-04-15T10:18:53;28.50;;;13.87;;
8675;SDS011;4375;52.486;13.424;2023-04-15T10:21:20;29.20;;;14.60;;
8675;SDS011;4375;52.486;13.424;2023-04-15T10:23:47;29.20;;;14.80;;
8675;SDS011;4375;52.486;13.424;2023-04-15T10:26:14;29.63;;;14.17;;
8675;SDS011;4375;52.486;13.424;2023-04-15T10:28:41;30.23;;;13.57;;
8675;SDS011;4375;52.486;13.424;2023-04-15T10:31:07;28.43;;;14.27;;
8675;SDS011;4375;52.486;13.424;2023-04-15T10:33:36;28.83;;;13.80;;
8675;SDS011;4375;52.486;13.424;2023-04-15T10:36:03;29.93;;;14.97;;
8675;SDS011;4375;52.486;13.424;2023-04-15T10:38:37;31.03;;;15.60;;
8675;SDS011;4375;52.486;13.424;2023-04-15T10:43:38;29.97;;;14.80;;
8675;SDS011;4375;52.486;13.424;2023-04-15T10:46:04;30.40;;;13.77;;
8675;SDS011;4375;52.486;13.424;2023-04-15T10:48:30;28.10;;;14.43;;
8675;SDS011;4375;52.486;13.424;2023-04-15T10:50:56;30.07;;;14.43;;
8675;SDS011;4375;52.486;13.424;2023-04-15T10:53:27;30.87;;;14.67;;
8675;SDS011;4375;52.486;13.424;2023-04-15T10:55:54;26.10;;;13.23;;
8675;SDS011;4375;52.486;13.424;2023-04-15T10:58:22;28.40;;;14.27;;
8675;SDS011;4375;52.486;13.424;2023-04-15T11:01:04;33.43;;;16.87;;
8675;SDS011;4375;52.486;13.424;2023-04-15T11:03:37;39.37;;;20.07;;
8675;SDS011;4375;52.486;13.424;2023-04-15T11:06:06;33.33;;;17.00;;
8675;SDS011;4375;52.486;13.424;2023-04-15T11:11:20;30.87;;;16.50;;
8675;SDS011;4375;52.486;13.424;2023-04-15T11:13:49;33.40;;;16.47;;
8675;SDS011;4375;52.486;13.424;2023-04-15T11:16:16;33.30;;;16.83;;
8675;SDS011;4375;52.486;13.424;2023-04-15T11:18:42;31.57;;;16.03;;
8675;SDS011;4375;52.486;13.424;2023-04-15T11:21:18;40.30;;;15.50;;
8675;SDS011;4375;52.486;13.424;2023-04-15T11:23:48;28.77;;;14.30;;
8675;SDS011;4375;52.486;13.424;2023-04-15T11:26:15;29.20;;;14.00;;
8675;SDS011;4375;52.486;13.424;2023-04-15T11:28:42;30.60;;;15.00;;
8675;SDS011;4375;52.486;13.424;2023-04-15T11:31:17;29.00;;;14.40;;
8675;SDS011;4375;52.486;13.424;2023-04-15T11:33:44;28.53;;;14.20;;
8675;SDS011;4375;52.486;13.424;2023-04-15T11:36:17;28.53;;;14.30;;
8675;SDS011;4375;52.486;13.424;2023-04-15T11:38:43;26.50;;;12.70;;
8675;SDS011;4375;52.486;13.424;2023-04-15T11:41:11;28.17;;;13.13;;
8675;SDS011;4375;52.486;13.424;2023-04-15T11:43:37;24.63;;;11.47;;
8675;SDS011;4375;52.486;13.424;2023-04-15T11:46:02;26.67;;;11.10;;
8675;SDS011;4375;52.486;13.424;2023-04-15T11:48:29;26.20;;;12.50;;
8675;SDS011;4375;52.486;13.424;2023-04-15T11:51:00;27.17;;;12.73;;
8675;SDS011;4375;52.486;13.424;2023-04-15T11:53:37;25.97;;;11.87;;
8675;SDS011;4375;52.486;13.424;2023-04-15T11:56:07;29.47;;;12.10;;
8675;SDS011;4375;52.486;13.424;2023-04-15T11:58:41;27.80;;;13.60;;
8675;SDS011;4375;52.486;13.424;2023-04-15T12:01:07;25.93;;;12.37;;
8675;SDS011;4375;52.486;13.424;2023-04-15T12:03:40;27.07;;;13.23;;
8675;SDS011;4375;52.486;13.424;2023-04-15T12:06:23;26.57;;;12.47;;
8675;SDS011;4375;52.486;13.424;2023-04-15T12:13:52;29.33;;;12.63;;
8675;SDS011;4375;52.486;13.424;2023-04-15T12:16:21;28.50;;;11.60;;
8675;SDS011;4375;52.486;13.424;2023-04-15T12:18:55;30.30;;;13.17;;
8675;SDS011;4375;52.486;13.424;2023-04-15T12:21:23;27.97;;;13.00;;
8675;SDS011;4375;52.486;13.424;2023-04-15T12:23:50;25.90;;;11.17;;
8675;SDS011;4375;52.486;13.424;2023-04-15T12:26:36;25.37;;;11.97;;
8675;SDS011;4375;52.486;13.424;2023-04-15T12:29:08;27.10;;;12.57;;
8675;SDS011;4375;52.486;13.424;2023-04-15T12:31:35;25.50;;;11.50;;
8675;SDS011;4375;52.486;13.424;2023-04-15T12:34:02;26.50;;;12.67;;
8675;SDS011;4375;52.486;13.424;2023-04-15T12:36:31;23.87;;;10.67;;
8675;SDS011;4375;52.486;13.424;2023-04-15T12:39:01;24.00;;;10.93;;
8675;SDS011;4375;52.486;13.424;2023-04-15T12:41:28;25.17;;;11.40;;
8675;SDS011;4375;52.486;13.424;2023-04-15T12:43:54;25.07;;;11.80;;
8675;SDS011;4375;52.486;13.424;2023-04-15T12:46:19;26.50;;;12.50;;
8675;SDS011;4375;52.486;13.424;2023-04-15T12:48:45;26.00;;;11.90;;
8675;SDS011;4375;52.486;13.424;2023-04-15T12:51:11;28.60;;;13.07;;
8675;SDS011;4375;52.486;13.424;2023-04-15T12:53:37;24.73;;;11.60;;
8675;SDS011;4375;52.486;13.424;2023-04-15T12:56:03;24.77;;;10.73;;
8675;SDS011;4375;52.486;13.424;2023-04-15T12:58:30;27.30;;;12.00;;
8675;SDS011;4375;52.486;13.424;2023-04-15T13:00:56;25.03;;;11.50;;
8675;SDS011;4375;52.486;13.424;2023-04-15T13:03:22;25.07;;;11.27;;
8675;SDS011;4375;52.486;13.424;2023-04-15T13:05:47;24.33;;;9.80;;
8675;SDS011;4375;52.486;13.424;2023-04-15T13:08:13;23.23;;;9.60;;
8675;SDS011;4375;52.486;13.424;2023-04-15T13:10:39;22.30;;;9.50;;
8675;SDS011;4375;52.486;13.424;2023-04-15T13:13:06;22.60;;;10.03;;
8675;SDS011;4375;52.486;13.424;2023-04-15T13:15:32;20.97;;;9.20;;
8675;SDS011;4375;52.486;13.424;2023-04-15T13:17:58;24.57;;;10.30;;
8675;SDS011;4375;52.486;13.424;2023-04-15T13:20:24;22.60;;;9.30;;
8675;SDS011;4375;52.486;13.424;2023-04-15T13:22:51;25.37;;;10.97;;
8675;SDS011;4375;52.486;13.424;2023-04-15T13:25:17;23.57;;;10.73;;
8675;SDS011;4375;52.486;13.424;2023-04-15T13:27:43;23.37;;;10.17;;
8675;SDS011;4375;52.486;13.424;2023-04-15T13:30:09;25.60;;;10.90;;
8675;SDS011;4375;52.486;13.424;2023-04-15T13:32:35;24.13;;;10.50;;
8675;SDS011;4375;52.486;13.424;2023-04-15T13:35:00;25.93;;;11.70;;
8675;SDS011;4375;52.486;13.424;2023-04-15T13:37:26;24.00;;;10.70;;
8675;SDS011;4375;52.486;13.424;2023-04-15T13:39:52;23.63;;;10.87;;
8675;SDS011;4375;52.486;13.424;2023-04-15T13:42:18;25.67;;;10.87;;
8675;SDS011;4375;52.486;13.424;2023-04-15T13:44:45;23.23;;;10.40;;
8675;SDS011;4375;52.486;13.424;2023-04-15T13:47:10;23.77;;;9.83;;
8675;SDS011;4375;52.486;13.424;2023-04-15T13:49:37;22.77;;;9.70;;
8675;SDS011;4375;52.486;13.424;2023-04-15T13:52:02;22.93;;;9.60;;
8675;SDS011;4375;52.486;13.424;2023-04-15T13:54:28;24.10;;;10.40;;
8675;SDS011;4375;52.486;13.424;2023-04-15T13:56:53;27.00;;;10.77;;
8675;SDS011;4375;52.486;13.424;2023-04-15T13:59:21;32.27;;;15.83;;
8675;SDS011;4375;52.486;13.424;2023-04-15T14:01:46;22.07;;;9.60;;
8675;SDS011;4375;52.486;13.424;2023-04-15T14:04:12;21.67;;;8.80;;
8675;SDS011;4375;52.486;13.424;2023-04-15T14:06:38;26.27;;;11.90;;
8675;SDS011;4375;52.486;13.424;2023-04-15T14:09:03;27.90;;;12.07;;
8675;SDS011;4375;52.486;13.424;2023-04-15T14:11:29;21.60;;;8.80;;
8675;SDS011;4375;52.486;13.424;2023-04-15T14:13:55;26.40;;;10.60;;
8675;SDS011;4375;52.486;13.424;2023-04-15T14:16:20;28.90;;;14.17;;
8675;SDS011;4375;52.486;13.424;2023-04-15T14:18:46;23.27;;;10.30;;
8675;SDS011;4375;52.486;13.424;2023-04-15T14:21:12;23.20;;;9.33;;
8675;SDS011;4375;52.486;13.424;2023-04-15T14:23:37;24.50;;;9.90;;
8675;SDS011;4375;52.486;13.424;2023-04-15T14:26:03;21.27;;;9.07;;
8675;SDS011;4375;52.486;13.424;2023-04-15T14:28:29;25.33;;;9.50;;
8675;SDS011;4375;52.486;13.424;2023-04-15T14:30:56;24.77;;;10.20;;
8675;SDS011;4375;52.486;13.424;2023-04-15T14:33:21;22.23;;;7.90;;
8675;SDS011;4375;52.486;13.424;2023-04-15T14:35:48;23.00;;;9.50;;
8675;SDS011;4375;52.486;13.424;2023-04-15T14:38:15;24.97;;;10.17;;
8675;SDS011;4375;52.486;13.424;2023-04-15T14:40:41;27.10;;;10.37;;
8675;SDS011;4375;52.486;13.424;2023-04-15T14:43:06;23.50;;;9.03;;
8675;SDS011;4375;52.486;13.424;2023-04-15T14:45:32;22.03;;;8.47;;
8675;SDS011;4375;52.486;13.424;2023-04-15T14:47:58;22.10;;;9.30;;
8675;SDS011;4375;52.486;13.424;2023-04-15T14:50:24;23.13;;;8.57;;